Time;durP1;ratioP1;P1;durP2;ratioP2;P2;SDS_P1;SDS_P2;PMS_P1;PMS_P2;Temp;Humidity;BMP_temperature;BMP_pressure;BME280_temperature;BME280_humidity;BME280_pressure;Samples;Min_cycle;Max_cycle;Signal;HPM_P1;HPM_P2
2023/01/02 00:03:43;;;;;;;3.45;1.33;;;;;;;;;;21260331;27;20100;-63
2023/01/02 00:13:45;;;;;;;2.28;0.90;;;;;;;;;;21258956;27;20051;-62
2023/01/02 00:23:48;;;;;;;4.18;1.20;;;;;;;;;;21257615;27;20479;-64
2023/01/02 00:33:51;;;;;;;4.72;1.02;;;;;;;;;;21256314;27;20058;-63
2023/01/02 00:43:53;;;;;;;6.63;1.52;;;;;;;;;;21255103;27;20054;-63
2023/01/02 00:53:56;;;;;;;4.53;1.25;;;;;;;;;;21255759;27;20111;-63
2023/01/02 01:03:59;;;;;;;4.05;1.65;;;;;;;;;;21254447;27;20058;-63
2023/01/02 01:14:02;;;;;;;4.43;1.02;;;;;;;;;;21254051;27;20402;-62
2023/01/02 01:24:07;;;;;;;3.65;1.33;;;;;;;;;;21252713;27;20078;-62
2023/01/02 01:34:13;;;;;;;6.22;1.27;;;;;;;;;;21252414;27;20406;-64
2023/01/02 01:44:35;;;;;;;5.38;1.40;;;;;;;;;;21249089;27;20059;-62
2023/01/02 01:54:52;;;;;;;2.92;1.33;;;;;;;;;;21249857;27;20043;-63
2023/01/02 02:04:55;;;;;;;2.47;1.17;;;;;;;;;;21249024;27;20055;-64
2023/01/02 02:14:58;;;;;;;2.83;1.35;;;;;;;;;;21248883;27;20051;-62
2023/01/02 02:25:11;;;;;;;9.73;3.78;;;;;;;;;;21247995;27;20376;-63
2023/01/02 02:35:32;;;;;;;2.80;1.80;;;;;;;;;;21248765;28;20043;-64
2023/01/02 02:46:06;;;;;;;3.90;1.67;;;;;;;;;;21247211;28;20047;-64
2023/01/02 02:56:23;;;;;;;3.92;1.77;;;;;;;;;;21259765;27;20051;-63
2023/01/02 03:06:54;;;;;;;3.92;1.63;;;;;;;;;;21263437;27;20074;-62
2023/01/02 03:17:10;;;;;;;5.15;2.38;;;;;;;;;;21263026;27;20492;-62
2023/01/02 03:27:23;;;;;;;5.20;2.50;;;;;;;;;;21261132;27;20046;-63
2023/01/02 03:37:40;;;;;;;5.18;1.98;;;;;;;;;;21261804;27;20390;-63
2023/01/02 03:47:55;;;;;;;3.83;1.88;;;;;;;;;;21260727;27;20043;-64
2023/01/02 03:58:24;;;;;;;6.18;2.78;;;;;;;;;;21259747;27;20368;-64
2023/01/02 04:08:55;;;;;;;6.68;2.20;;;;;;;;;;21257200;27;20138;-63
2023/01/02 04:19:24;;;;;;;9.57;2.53;;;;;;;;;;21259502;27;20047;-63
2023/01/02 04:29:46;;;;;;;4.20;2.00;;;;;;;;;;21256686;27;20043;-63
2023/01/02 04:40:11;;;;;;;5.68;2.50;;;;;;;;;;21257330;27;20055;-63
2023/01/02 04:50:32;;;;;;;5.20;2.65;;;;;;;;;;21254753;27;20104;-62
2023/01/02 05:00:54;;;;;;;4.40;2.42;;;;;;;;;;21254409;27;20511;-62
2023/01/02 05:11:08;;;;;;;7.78;3.10;;;;;;;;;;21253284;27;20039;-63
2023/01/02 05:31:43;;;;;;;6.05;2.60;;;;;;;;;;21251855;27;20095;-63
2023/01/02 05:41:48;;;;;;;11.82;3.50;;;;;;;;;;21250430;27;20051;-63
2023/01/02 05:51:51;;;;;;;4.03;2.17;;;;;;;;;;21251332;27;20131;-63
2023/01/02 06:01:54;;;;;;;4.35;1.88;;;;;;;;;;21249681;27;20054;-62
2023/01/02 06:11:57;;;;;;;4.43;1.83;;;;;;;;;;21249634;27;20388;-62
2023/01/02 06:22:01;;;;;;;6.90;2.90;;;;;;;;;;21248549;27;20591;-63
2023/01/02 06:32:03;;;;;;;5.45;2.38;;;;;;;;;;21271668;27;20039;-62
2023/01/02 06:42:05;;;;;;;3.13;1.90;;;;;;;;;;21276555;27;20053;-62
2023/01/02 06:52:08;;;;;;;4.43;1.60;;;;;;;;;;21276450;27;20128;-63
2023/01/02 07:02:11;;;;;;;5.50;2.03;;;;;;;;;;21275242;27;20123;-63
2023/01/02 07:12:13;;;;;;;4.70;1.70;;;;;;;;;;21275799;27;20410;-62
2023/01/02 07:22:15;;;;;;;3.60;1.85;;;;;;;;;;21274911;27;20050;-63
2023/01/02 07:32:17;;;;;;;4.90;2.47;;;;;;;;;;21274706;27;20050;-64
2023/01/02 07:42:19;;;;;;;4.55;2.05;;;;;;;;;;21263912;27;20058;-63
2023/01/02 07:52:21;;;;;;;4.75;2.30;;;;;;;;;;21262413;27;20081;-64
2023/01/02 08:02:24;;;;;;;6.32;2.05;;;;;;;;;;21258933;27;20562;-64
2023/01/02 08:12:27;;;;;;;5.78;2.50;;;;;;;;;;21258008;27;20100;-63
2023/01/02 08:22:30;;;;;;;5.60;2.50;;;;;;;;;;21258155;27;20059;-63
2023/01/02 08:32:36;;;;;;;8.70;2.88;;;;;;;;;;21257061;27;20067;-62
2023/01/02 08:42:41;;;;;;;8.50;3.72;;;;;;;;;;21296156;27;20111;-69
2023/01/02 08:52:43;;;;;;;9.45;1.70;;;;;;;;;;21290623;27;20475;-67
2023/01/02 09:02:46;;;;;;;6.22;2.47;;;;;;;;;;21256054;27;20096;-64
2023/01/02 09:12:49;;;;;;;10.23;3.05;;;;;;;;;;21253663;27;20463;-63
2023/01/02 09:22:51;;;;;;;3.55;1.10;;;;;;;;;;21253703;27;20058;-63
2023/01/02 09:32:53;;;;;;;4.00;1.33;;;;;;;;;;21252022;27;20043;-65
2023/01/02 09:42:57;;;;;;;2.85;1.58;;;;;;;;;;21251213;27;20050;-64
2023/01/02 09:53:00;;;;;;;3.30;1.55;;;;;;;;;;21244572;27;20100;-63
2023/01/02 10:03:02;;;;;;;3.42;1.85;;;;;;;;;;21247221;27;20066;-64
2023/01/02 10:13:10;;;;;;;4.45;2.17;;;;;;;;;;21257585;27;20039;-69
2023/01/02 10:23:14;;;;;;;8.13;5.30;;;;;;;;;;21253273;27;20437;-70
2023/01/02 10:33:19;;;;;;;4.72;2.35;;;;;;;;;;21252101;28;20043;-66
2023/01/02 10:43:24;;;;;;;7.65;3.08;;;;;;;;;;21253718;28;20075;-69
2023/01/02 10:53:36;;;;;;;13.18;3.55;;;;;;;;;;21257157;28;20074;-65
2023/01/02 11:03:37;;;;;;;8.25;4.30;;;;;;;;;;21251244;28;20526;-71
2023/01/02 11:13:47;;;;;;;12.77;4.40;;;;;;;;;;21252841;27;20510;-65
2023/01/02 11:23:56;;;;;;;10.10;4.55;;;;;;;;;;21262772;27;20055;-65
2023/01/02 11:34:09;;;;;;;11.15;3.75;;;;;;;;;;21261765;27;20130;-68
2023/01/02 11:44:24;;;;;;;11.23;4.05;;;;;;;;;;21260835;27;20055;-64
2023/01/02 11:54:49;;;;;;;10.45;3.78;;;;;;;;;;21247790;27;20043;-66
2023/01/02 12:04:51;;;;;;;9.52;3.65;;;;;;;;;;21242129;27;20422;-64
2023/01/02 12:14:56;;;;;;;6.60;3.75;;;;;;;;;;21242584;27;20047;-64
2023/01/02 12:25:17;;;;;;;6.32;3.28;;;;;;;;;;21253174;27;20490;-74
2023/01/02 12:35:34;;;;;;;8.63;3.90;;;;;;;;;;21256261;27;20188;-69
2023/01/02 12:45:39;;;;;;;7.90;3.97;;;;;;;;;;21255841;27;20053;-76
2023/01/02 12:55:42;;;;;;;7.90;4.53;;;;;;;;;;21255849;27;20405;-70
2023/01/02 13:05:52;;;;;;;7.03;3.92;;;;;;;;;;21254400;27;20062;-73
2023/01/02 13:15:59;;;;;;;13.13;5.45;;;;;;;;;;21253452;27;20146;-69
2023/01/02 13:26:07;;;;;;;6.47;3.70;;;;;;;;;;21234561;27;20138;-59
2023/01/02 13:36:18;;;;;;;5.80;3.47;;;;;;;;;;21251019;27;20047;-61
2023/01/02 13:46:28;;;;;;;6.80;3.63;;;;;;;;;;21250285;27;20047;-62
2023/01/02 13:56:30;;;;;;;7.57;4.10;;;;;;;;;;21249830;27;20131;-59
2023/01/02 14:06:38;;;;;;;7.75;3.33;;;;;;;;;;21249333;27;20451;-58
2023/01/02 14:16:40;;;;;;;7.50;3.60;;;;;;;;;;21248955;27;20059;-60
2023/01/02 14:26:42;;;;;;;4.60;2.88;;;;;;;;;;21249374;27;20083;-60
2023/01/02 14:36:45;;;;;;;7.00;3.28;;;;;;;;;;21249205;28;20071;-61
2023/01/02 14:46:48;;;;;;;5.95;2.60;;;;;;;;;;21251285;27;20092;-61
2023/01/02 14:56:58;;;;;;;3.83;2.80;;;;;;;;;;21264621;27;20066;-59
2023/01/02 15:07:09;;;;;;;4.75;2.80;;;;;;;;;;21263101;27;20457;-59
2023/01/02 15:17:16;;;;;;;4.63;2.70;;;;;;;;;;21262815;27;20043;-58
2023/01/02 15:27:26;;;;;;;4.78;3.00;;;;;;;;;;21261406;27;20502;-62
2023/01/02 15:37:28;;;;;;;4.70;3.08;;;;;;;;;;21261092;27;20100;-61
2023/01/02 15:47:30;;;;;;;8.80;3.38;;;;;;;;;;21260110;27;20097;-68
2023/01/02 15:57:32;;;;;;;6.05;3.20;;;;;;;;;;21259670;27;20505;-61
2023/01/02 16:07:36;;;;;;;5.93;3.20;;;;;;;;;;21259823;27;20051;-60
2023/01/02 16:17:39;;;;;;;4.15;2.38;;;;;;;;;;21259605;27;20462;-60
2023/01/02 16:27:50;;;;;;;3.95;3.00;;;;;;;;;;21257688;27;20060;-61
2023/01/02 16:37:56;;;;;;;4.50;2.30;;;;;;;;;;21257007;27;20116;-61
2023/01/02 16:47:59;;;;;;;5.03;2.78;;;;;;;;;;21254960;27;20093;-60
2023/01/02 16:58:01;;;;;;;4.95;2.67;;;;;;;;;;21254105;27;20055;-64
2023/01/02 17:08:03;;;;;;;6.35;3.40;;;;;;;;;;21253397;27;20047;-63
2023/01/02 17:18:05;;;;;;;10.60;3.53;;;;;;;;;;21252426;27;20043;-66
2023/01/02 17:28:07;;;;;;;6.75;3.05;;;;;;;;;;21252944;27;20081;-67
2023/01/02 17:38:09;;;;;;;7.55;2.78;;;;;;;;;;21233621;27;20046;-65
2023/01/02 17:48:13;;;;;;;8.98;2.55;;;;;;;;;;21251433;27;20047;-63
2023/01/02 17:58:15;;;;;;;9.63;4.28;;;;;;;;;;21249560;27;20047;-63
2023/01/02 18:08:17;;;;;;;8.05;3.50;;;;;;;;;;21248824;27;20108;-67
2023/01/02 18:18:22;;;;;;;15.63;3.83;;;;;;;;;;21249245;27;20407;-67
2023/01/02 18:28:26;;;;;;;6.72;3.88;;;;;;;;;;21248790;27;20116;-72
2023/01/02 18:38:29;;;;;;;21.77;6.78;;;;;;;;;;21247846;28;20053;-67
2023/01/02 18:48:31;;;;;;;19.23;6.22;;;;;;;;;;21248880;28;20051;-65
2023/01/02 18:58:39;;;;;;;11.55;4.53;;;;;;;;;;21248023;28;20081;-71
2023/01/02 19:08:41;;;;;;;45.08;10.05;;;;;;;;;;21246487;28;20057;-65
2023/01/02 19:18:44;;;;;;;56.03;14.65;;;;;;;;;;21247231;28;20074;-68
2023/01/02 19:28:54;;;;;;;20.48;6.30;;;;;;;;;;21246795;28;20104;-68
2023/01/02 19:38:56;;;;;;;13.43;6.75;;;;;;;;;;21257674;27;20058;-73
2023/01/02 19:48:58;;;;;;;7.65;4.20;;;;;;;;;;21260159;27;20049;-65
2023/01/02 19:59:00;;;;;;;18.50;5.03;;;;;;;;;;21258844;27;20043;-69
2023/01/02 20:09:03;;;;;;;10.23;4.85;;;;;;;;;;21258421;27;20426;-64
2023/01/02 20:19:06;;;;;;;11.23;4.88;;;;;;;;;;21258434;27;20130;-64
2023/01/02 20:29:08;;;;;;;10.65;5.43;;;;;;;;;;21257619;27;20043;-60
2023/01/02 20:39:10;;;;;;;13.88;5.90;;;;;;;;;;21256137;27;20055;-60
2023/01/02 20:49:12;;;;;;;9.80;5.70;;;;;;;;;;21255749;27;20043;-60
2023/01/02 20:59:14;;;;;;;9.82;5.05;;;;;;;;;;21218395;27;20467;-59
2023/01/02 21:09:16;;;;;;;13.73;5.85;;;;;;;;;;21237134;27;20122;-62
2023/01/02 21:19:19;;;;;;;14.88;5.70;;;;;;;;;;21254363;27;20123;-59
2023/01/02 21:29:23;;;;;;;13.57;6.43;;;;;;;;;;21254267;27;20443;-58
2023/01/02 21:39:27;;;;;;;13.52;6.38;;;;;;;;;;21252676;27;20066;-60
2023/01/02 21:49:30;;;;;;;16.77;7.78;;;;;;;;;;21251091;27;20077;-61
2023/01/02 21:59:37;;;;;;;11.48;5.28;;;;;;;;;;21250223;27;20138;-60
2023/01/02 22:09:44;;;;;;;9.20;4.35;;;;;;;;;;21250278;27;20123;-60
2023/01/02 22:19:48;;;;;;;9.93;4.30;;;;;;;;;;21249207;27;20055;-60
2023/01/02 22:29:52;;;;;;;9.43;4.18;;;;;;;;;;21249293;27;20101;-60
2023/01/02 22:39:54;;;;;;;9.25;3.70;;;;;;;;;;21248590;28;20058;-60
2023/01/02 22:49:58;;;;;;;6.13;4.13;;;;;;;;;;21248864;28;20044;-59
2023/01/02 23:00:01;;;;;;;6.90;4.35;;;;;;;;;;21248498;28;20043;-60
2023/01/02 23:10:04;;;;;;;5.90;3.42;;;;;;;;;;21253907;27;20050;-59
2023/01/02 23:20:06;;;;;;;6.40;3.63;;;;;;;;;;21263404;27;20573;-59
2023/01/02 23:30:09;;;;;;;7.97;3.88;;;;;;;;;;21263290;27;20451;-61
2023/01/02 23:40:11;;;;;;;8.90;4.00;;;;;;;;;;21262098;27;20069;-61
2023/01/02 23:50:14;;;;;;;6.13;3.60;;;;;;;;;;21260994;27;20474;-59
